createdAt,value
2023-04-25T00:02:39.146Z,74.31
2023-04-25T00:05:42.539Z,74.89
2023-04-25T00:08:46.676Z,74.85
2023-04-25T00:11:49.420Z,74.23
2023-04-25T00:14:52.299Z,74.30
2023-04-25T00:17:55.018Z,74.59
2023-04-25T00:20:57.943Z,75.40
2023-04-25T00:24:02.337Z,75.46
2023-04-25T00:27:05.328Z,74.84
2023-04-25T00:30:09.207Z,74.26
2023-04-25T00:33:11.988Z,74.77
2023-04-25T00:36:14.795Z,75.06
2023-04-25T00:39:18.850Z,74.85
2023-04-25T00:42:21.897Z,74.71
2023-04-25T00:45:29.320Z,73.78
2023-04-25T00:48:32.079Z,73.38
2023-04-25T00:51:34.914Z,72.46
2023-04-25T00:54:39.441Z,71.95
2023-04-25T00:57:42.605Z,71.61
2023-04-25T01:00:46.914Z,71.05
2023-04-25T01:03:52.525Z,72.17
2023-04-25T01:06:56.464Z,72.48
2023-04-25T01:10:00.894Z,72.81
2023-04-25T01:13:03.921Z,73.84
2023-04-25T01:16:07.316Z,74.13
2023-04-25T01:19:13.126Z,74.01
2023-04-25T01:22:17.868Z,74.84
2023-04-25T01:25:21.643Z,74.42
2023-04-25T01:28:24.609Z,74.57
2023-04-25T01:31:28.320Z,73.78
2023-04-25T01:34:31.190Z,74.48
2023-04-25T01:37:35.563Z,74.66
2023-04-25T01:40:41.067Z,74.65
2023-04-25T01:43:43.898Z,74.87
2023-04-25T01:46:46.826Z,74.47
2023-04-25T01:49:49.554Z,74.34
2023-04-25T01:52:53.544Z,74.86
2023-04-25T01:55:56.291Z,74.15
2023-04-25T01:58:59.641Z,74.29
2023-04-25T02:02:04.685Z,74.75
2023-04-25T02:05:08.623Z,73.88
2023-04-25T02:08:12.757Z,73.88
2023-04-25T02:11:15.523Z,74.28
2023-04-25T02:14:18.473Z,74.52
2023-04-25T02:17:22.624Z,74.64
2023-04-25T02:20:27.215Z,75.12
2023-04-25T02:23:31.932Z,74.94
2023-04-25T02:26:34.792Z,75.83
2023-04-25T02:29:37.689Z,76.26
2023-04-25T02:32:40.646Z,76.15
2023-04-25T02:35:43.379Z,76.88
2023-04-25T02:38:47.445Z,76.82
2023-04-25T02:41:50.193Z,77.35
2023-04-25T02:44:52.822Z,77.33
2023-04-25T02:47:55.582Z,77.95
2023-04-25T02:50:58.287Z,78.15
2023-04-25T02:54:02.503Z,77.82
2023-04-25T02:57:05.239Z,78.00
2023-04-25T03:00:09.270Z,78.66
2023-04-25T03:03:12.498Z,78.70
2023-04-25T03:06:15.602Z,78.21
2023-04-25T03:09:19.608Z,78.27
2023-04-25T03:12:22.319Z,78.13
2023-04-25T03:15:24.970Z,78.42
2023-04-25T03:18:27.692Z,77.04
2023-04-25T03:21:30.468Z,76.16
2023-04-25T03:24:34.590Z,76.45
2023-04-25T03:27:37.325Z,77.23
2023-04-25T03:30:39.963Z,77.88
2023-04-25T03:33:42.658Z,78.24
2023-04-25T03:36:45.323Z,79.10
2023-04-25T03:39:49.503Z,79.38
2023-04-25T03:42:52.228Z,79.64
2023-04-25T03:45:55.076Z,79.56
2023-04-25T03:48:57.814Z,78.18
2023-04-25T03:52:01.242Z,77.95
2023-04-25T03:55:06.755Z,77.40
2023-04-25T03:58:09.895Z,77.09
2023-04-25T04:01:12.675Z,76.75
2023-04-25T04:04:15.568Z,76.82
2023-04-25T04:07:18.478Z,77.25
2023-04-25T04:10:23.115Z,77.21
2023-04-25T04:13:25.806Z,77.80
2023-04-25T04:16:28.596Z,77.90
2023-04-25T04:19:31.297Z,78.12
2023-04-25T04:22:34.379Z,77.92
2023-04-25T04:25:38.521Z,77.76
2023-04-25T04:28:41.235Z,77.52
2023-04-25T04:31:43.957Z,78.07
2023-04-25T04:34:48.293Z,78.44
2023-04-25T04:37:51.576Z,78.22
2023-04-25T04:40:55.681Z,78.63
2023-04-25T04:43:58.417Z,78.34
2023-04-25T04:47:02.335Z,78.40
2023-04-25T04:50:05.983Z,78.48
2023-04-25T04:53:09.491Z,78.85
2023-04-25T04:56:13.574Z,79.02
2023-04-25T04:59:16.330Z,78.97
2023-04-25T05:02:19.106Z,78.61
2023-04-25T05:05:21.980Z,78.11
2023-04-25T05:08:24.654Z,78.40
2023-04-25T05:11:28.681Z,77.86
2023-04-25T05:14:31.406Z,77.59
2023-04-25T05:17:34.673Z,77.49
2023-04-25T05:20:37.485Z,78.06
2023-04-25T05:23:40.219Z,78.11
2023-04-25T05:26:44.245Z,77.14
2023-04-25T05:29:47.027Z,78.14
2023-04-25T05:32:49.812Z,78.53
2023-04-25T05:35:52.626Z,78.29
2023-04-25T05:38:55.325Z,78.60
2023-04-25T05:41:59.407Z,79.57
2023-04-25T05:45:02.707Z,79.66
2023-04-25T05:48:05.455Z,80.24
2023-04-25T05:51:08.198Z,80.56
2023-04-25T05:54:11.779Z,81.02
2023-04-25T05:57:22.770Z,80.17
2023-04-25T06:00:25.687Z,80.29
2023-04-25T06:03:28.599Z,80.97
2023-04-25T06:06:31.561Z,82.06
2023-04-25T06:09:34.263Z,82.44
2023-04-25T06:12:39.334Z,82.33
2023-04-25T06:15:42.104Z,81.63
2023-04-25T06:18:44.798Z,81.31
2023-04-25T06:21:47.507Z,81.34
2023-04-25T06:24:50.179Z,81.23
2023-04-25T06:27:54.302Z,81.98
2023-04-25T06:30:57.192Z,79.56
2023-04-25T06:34:00.649Z,78.63
2023-04-25T06:37:03.430Z,77.59
2023-04-25T06:40:08.192Z,76.41
2023-04-25T06:43:12.314Z,77.87
2023-04-25T06:46:15.045Z,78.23
2023-04-25T06:49:17.745Z,76.51
2023-04-25T06:52:23.308Z,77.44
2023-04-25T06:55:26.113Z,77.50
2023-04-25T06:58:30.153Z,77.08
2023-04-25T07:01:32.854Z,77.11
2023-04-25T07:04:35.712Z,75.98
2023-04-25T07:07:38.586Z,76.43
2023-04-25T07:10:41.391Z,76.86
2023-04-25T07:13:45.589Z,77.68
2023-04-25T07:16:48.390Z,78.52
2023-04-25T07:19:51.190Z,78.11
2023-04-25T07:22:53.980Z,76.40
2023-04-25T07:25:56.810Z,75.80
2023-04-25T07:29:00.947Z,76.89
2023-04-25T07:32:03.756Z,78.18
2023-04-25T07:35:08.737Z,78.62
2023-04-25T07:38:11.490Z,79.09
2023-04-25T07:41:14.307Z,78.59
2023-04-25T07:44:18.322Z,77.61
2023-04-25T07:47:21.292Z,78.26
2023-04-25T07:50:24.215Z,78.45
2023-04-25T07:53:27.114Z,79.70
2023-04-25T07:56:38.543Z,80.41
2023-04-25T07:59:49.455Z,79.45
2023-04-25T08:02:53.067Z,77.88
2023-04-25T08:05:56.713Z,78.27
2023-04-25T08:08:59.547Z,77.96
2023-04-25T08:12:02.944Z,78.41
2023-04-25T08:15:08.420Z,78.73
2023-04-25T08:18:11.234Z,79.64
2023-04-25T08:21:14.315Z,80.43
2023-04-25T08:24:17.075Z,81.91
2023-04-25T08:27:20.117Z,83.14
2023-04-25T08:30:24.200Z,83.90
2023-04-25T08:33:27.096Z,84.69
2023-04-25T08:39:35.614Z,84.07
2023-04-25T08:42:40.043Z,84.16
2023-04-25T08:45:44.512Z,83.58
2023-04-25T08:48:48.136Z,82.45
2023-04-25T08:51:52.642Z,81.05
2023-04-25T08:54:57.323Z,80.83
2023-04-25T08:58:01.694Z,81.30
2023-04-25T09:01:06.145Z,82.41
2023-04-25T09:04:09.181Z,81.94
2023-04-25T09:07:12.359Z,82.48
2023-04-25T09:10:16.846Z,81.66
2023-04-25T09:13:27.344Z,82.30
2023-04-25T09:16:32.263Z,80.96
2023-04-25T09:19:40.822Z,83.29
2023-04-25T09:22:48.042Z,84.14
2023-04-25T09:25:51.511Z,83.10
2023-04-25T09:29:07.771Z,83.71
2023-04-25T09:32:22.550Z,84.13
2023-04-25T09:35:27.528Z,84.35
2023-04-25T09:38:32.713Z,84.62
2023-04-25T09:41:39.912Z,84.24
2023-04-25T09:44:45.411Z,84.51
2023-04-25T09:47:50.979Z,83.44
2023-04-25T09:51:06.557Z,84.62
2023-04-25T09:54:09.389Z,84.85
2023-04-25T09:57:16.914Z,81.93
2023-04-25T10:00:22.298Z,81.22
2023-04-25T10:03:28.325Z,80.97
2023-04-25T10:06:32.673Z,82.36
2023-04-25T10:09:38.527Z,83.75
2023-04-25T10:12:44.390Z,83.82
2023-04-25T10:15:49.134Z,83.68
2023-04-25T10:18:53.827Z,83.99
2023-04-25T10:22:04.305Z,84.06
2023-04-25T10:25:09.574Z,85.16
2023-04-25T10:28:12.518Z,86.05
2023-04-25T10:31:18.421Z,83.33
2023-04-25T10:34:27.267Z,84.39
2023-04-25T10:37:32.300Z,84.58
2023-04-25T10:40:35.518Z,84.67
2023-04-25T10:43:40.443Z,85.88
2023-04-25T10:46:43.359Z,86.16
2023-04-25T10:49:52.737Z,86.30
2023-04-25T10:52:55.829Z,85.59
2023-04-25T10:55:58.588Z,86.23
2023-04-25T10:59:11.055Z,86.73
2023-04-25T11:02:14.953Z,85.01
2023-04-25T11:05:24.498Z,85.37
2023-04-25T11:08:41.135Z,85.64
2023-04-25T11:11:44.003Z,85.42
2023-04-25T11:14:46.817Z,84.99
2023-04-25T11:17:49.699Z,83.79
2023-04-25T11:20:53.976Z,82.98
2023-04-25T11:23:58.478Z,83.40
2023-04-25T11:27:03.625Z,82.27
2023-04-25T11:30:14.262Z,81.71
2023-04-25T11:33:17.216Z,80.96
2023-04-25T11:36:21.656Z,81.92
2023-04-25T11:39:26.228Z,81.93
2023-04-25T11:42:29.211Z,82.25
2023-04-25T11:45:32.972Z,82.37
2023-04-25T11:48:39.681Z,82.67
2023-04-25T11:51:44.846Z,82.57
2023-04-25T11:54:47.761Z,83.04
2023-04-25T11:57:52.213Z,82.05
2023-04-25T12:00:55.258Z,82.98
2023-04-25T12:03:58.323Z,81.33
2023-04-25T12:07:03.582Z,80.47
2023-04-25T12:10:08.377Z,81.51
2023-04-25T12:13:22.861Z,82.00
2023-04-25T12:16:25.579Z,83.17
2023-04-25T12:19:33.752Z,83.71
2023-04-25T12:22:38.520Z,82.98
2023-04-25T12:25:43.096Z,82.85
2023-04-25T12:28:48.263Z,82.93
2023-04-25T12:31:52.328Z,82.43
2023-04-25T12:34:55.509Z,81.19
2023-04-25T12:38:00.076Z,80.33
2023-04-25T12:41:02.762Z,80.32
2023-04-25T12:44:05.935Z,79.46
2023-04-25T12:47:08.859Z,78.16
2023-04-25T12:50:12.514Z,80.21
2023-04-25T12:53:17.112Z,76.67
2023-04-25T12:56:22.286Z,76.21
2023-04-25T12:59:26.418Z,73.37
2023-04-25T13:02:29.601Z,75.19
2023-04-25T13:05:32.906Z,75.81
2023-04-25T13:08:37.858Z,76.64
2023-04-25T13:11:41.448Z,76.19
2023-04-25T13:14:44.633Z,76.51
2023-04-25T13:17:47.657Z,78.59
2023-04-25T13:20:50.339Z,74.33
2023-04-25T13:23:54.671Z,73.76
2023-04-25T13:26:57.923Z,75.05
2023-04-25T13:30:01.276Z,77.86
2023-04-25T13:33:04.473Z,76.75
2023-04-25T13:36:07.642Z,78.40
2023-04-25T13:39:13.212Z,76.83
2023-04-25T13:42:16.935Z,76.45
2023-04-25T13:45:20.012Z,75.99
2023-04-25T13:48:23.642Z,75.07
2023-04-25T13:51:27.474Z,75.62
2023-04-25T13:54:31.643Z,74.47
2023-04-25T13:57:34.825Z,75.81
2023-04-25T14:00:39.632Z,76.45
2023-04-25T14:03:42.461Z,76.76
2023-04-25T14:06:45.959Z,73.90
2023-04-25T14:09:50.577Z,73.79
2023-04-25T14:12:53.327Z,73.98
2023-04-25T14:15:56.902Z,71.34
2023-04-25T14:19:00.147Z,71.66
2023-04-25T14:22:02.882Z,69.24
2023-04-25T14:25:10.704Z,68.88
2023-04-25T14:28:13.619Z,68.76
2023-04-25T14:31:16.596Z,70.48
2023-04-25T14:34:19.650Z,68.00
2023-04-25T14:37:22.442Z,66.34
2023-04-25T14:40:27.996Z,65.46
2023-04-25T14:43:30.828Z,67.14
2023-04-25T14:46:33.772Z,65.83
2023-04-25T14:49:36.572Z,65.74
2023-04-25T14:52:39.586Z,65.06
2023-04-25T14:55:43.935Z,68.19
2023-04-25T14:58:47.311Z,67.17
2023-04-25T15:01:50.105Z,67.88
2023-04-25T15:04:53.021Z,66.47
2023-04-25T15:07:56.170Z,67.09
2023-04-25T15:11:00.691Z,68.20
2023-04-25T15:14:03.770Z,67.14
2023-04-25T15:17:06.544Z,64.74
2023-04-25T15:20:10.873Z,64.17
2023-04-25T15:23:13.824Z,62.54
2023-04-25T15:26:17.954Z,61.35
2023-04-25T15:29:21.316Z,63.28
2023-04-25T15:32:24.787Z,63.31
2023-04-25T15:35:27.980Z,64.19
2023-04-25T15:38:30.841Z,65.44
2023-04-25T15:41:35.089Z,67.14
2023-04-25T15:44:37.916Z,67.10
2023-04-25T15:47:40.781Z,65.94
2023-04-25T15:50:43.748Z,66.69
2023-04-25T15:53:47.209Z,66.84
2023-04-25T15:56:51.400Z,66.15
2023-04-25T15:59:54.318Z,64.91
2023-04-25T16:02:57.365Z,65.82
2023-04-25T16:06:00.285Z,66.56
2023-04-25T16:09:03.132Z,65.97
2023-04-25T16:12:08.493Z,65.73
2023-04-25T16:15:11.624Z,65.92
2023-04-25T16:18:14.536Z,66.91
2023-04-25T16:21:17.563Z,67.28
2023-04-25T16:24:20.246Z,68.06
2023-04-25T16:27:24.192Z,66.11
2023-04-25T16:30:26.920Z,65.75
2023-04-25T16:33:29.627Z,66.30
2023-04-25T16:36:33.555Z,66.67
2023-04-25T16:39:36.142Z,66.62
2023-04-25T16:42:40.172Z,67.57
2023-04-25T16:45:42.855Z,68.66
2023-04-25T16:48:45.787Z,67.34
2023-04-25T16:51:48.549Z,68.61
2023-04-25T16:54:51.172Z,68.99
2023-04-25T16:57:55.144Z,69.12
2023-04-25T17:00:57.872Z,68.20
2023-04-25T17:04:00.862Z,69.07
2023-04-25T17:07:03.884Z,67.98
2023-04-25T17:10:07.189Z,69.42
2023-04-25T17:13:11.171Z,71.23
2023-04-25T17:16:16.655Z,71.72
2023-04-25T17:19:19.375Z,70.88
2023-04-25T17:22:22.569Z,71.99
2023-04-25T17:25:25.414Z,71.51
2023-04-25T17:28:29.528Z,71.64
2023-04-25T17:31:32.309Z,73.22
2023-04-25T17:34:37.489Z,73.67
2023-04-25T17:37:40.817Z,73.83
2023-04-25T17:40:43.457Z,74.30
2023-04-25T17:43:47.602Z,74.83
2023-04-25T17:46:51.141Z,74.70
2023-04-25T17:49:54.618Z,74.16
2023-04-25T17:52:57.272Z,74.84
2023-04-25T17:55:59.875Z,76.04
2023-04-25T17:59:04.652Z,76.70
2023-04-25T18:02:07.348Z,77.32
2023-04-25T18:05:10.871Z,78.78
2023-04-25T18:08:15.022Z,77.50
2023-04-25T18:11:17.738Z,80.31
2023-04-25T18:14:22.905Z,81.25
2023-04-25T18:17:25.522Z,82.07
2023-04-25T18:20:28.534Z,82.30
2023-04-25T18:23:32.413Z,82.75
2023-04-25T18:26:35.046Z,83.39
2023-04-25T18:29:39.071Z,83.72
2023-04-25T18:32:44.106Z,81.97
2023-04-25T18:35:57.554Z,82.38
2023-04-25T18:39:11.717Z,81.61
2023-04-25T18:42:27.320Z,81.93
2023-04-25T18:45:31.322Z,83.07
2023-04-25T18:48:34.111Z,82.42
2023-04-25T18:51:37.052Z,83.01
2023-04-25T18:54:40.638Z,83.81
2023-04-25T18:57:44.072Z,84.59
2023-04-25T19:00:48.962Z,84.79
2023-04-25T19:03:55.886Z,85.25
2023-04-25T19:06:58.993Z,86.35
2023-04-25T19:10:01.617Z,86.09
2023-04-25T19:13:04.249Z,85.81
2023-04-25T19:16:08.953Z,85.81
2023-04-25T19:19:11.768Z,85.66
2023-04-25T19:22:14.443Z,85.52
2023-04-25T19:25:17.583Z,84.96
2023-04-25T19:28:20.378Z,85.41
2023-04-25T19:31:24.813Z,86.55
2023-04-25T19:34:28.329Z,87.32
2023-04-25T19:37:31.609Z,87.32
2023-04-25T19:40:34.554Z,87.83
2023-04-25T19:43:37.693Z,87.74
2023-04-25T19:46:42.803Z,87.20
2023-04-25T19:49:46.044Z,87.19
2023-04-25T19:52:48.835Z,87.27
2023-04-25T19:55:51.740Z,87.60
2023-04-25T19:58:54.834Z,87.14
2023-04-25T20:01:59.674Z,86.66
2023-04-25T20:05:02.698Z,86.64
2023-04-25T20:08:05.664Z,86.77
2023-04-25T20:11:08.656Z,87.22
2023-04-25T20:14:11.583Z,87.51
2023-04-25T20:17:16.308Z,87.90
2023-04-25T20:20:20.259Z,86.58
2023-04-25T20:23:23.588Z,86.45
2023-04-25T20:26:27.216Z,86.70
2023-04-25T20:29:31.415Z,86.51
2023-04-25T20:32:37.031Z,86.85
2023-04-25T20:35:40.338Z,85.80
2023-04-25T20:38:43.192Z,85.94
2023-04-25T20:41:46.364Z,86.21
2023-04-25T20:44:49.742Z,85.86
2023-04-25T20:47:54.788Z,86.09
2023-04-25T20:50:58.954Z,86.09
2023-04-25T20:54:04.073Z,86.83
2023-04-25T20:57:07.526Z,86.64
2023-04-25T21:00:18.301Z,86.73
2023-04-25T21:03:23.428Z,87.22
2023-04-25T21:06:28.523Z,87.01
2023-04-25T21:09:33.138Z,86.81
2023-04-25T21:12:38.062Z,87.04
2023-04-25T21:15:42.526Z,86.99
2023-04-25T21:18:48.108Z,87.26
2023-04-25T21:21:51.171Z,87.50
2023-04-25T21:24:54.337Z,86.91
2023-04-25T21:27:57.238Z,86.72
2023-04-25T21:31:00.308Z,86.47
2023-04-25T21:34:04.640Z,86.44
2023-04-25T21:37:07.358Z,87.06
2023-04-25T21:40:10.940Z,87.12
2023-04-25T21:43:13.696Z,87.67
2023-04-25T21:46:23.477Z,87.10
2023-04-25T21:49:29.678Z,86.34
2023-04-25T21:52:32.778Z,86.75
2023-04-25T21:55:36.216Z,87.00
2023-04-25T21:58:38.939Z,87.33
2023-04-25T22:01:41.826Z,87.05
2023-04-25T22:04:47.395Z,87.41
2023-04-25T22:07:51.621Z,88.14
2023-04-25T22:10:55.271Z,88.25
2023-04-25T22:13:58.114Z,88.47
2023-04-25T22:17:01.238Z,88.30
2023-04-25T22:20:10.246Z,88.39
2023-04-25T22:23:13.149Z,88.02
2023-04-25T22:26:16.070Z,88.14
2023-04-25T22:29:18.803Z,87.67
2023-04-25T22:32:21.577Z,88.37
2023-04-25T22:35:25.870Z,88.81
2023-04-25T22:38:28.653Z,88.34
2023-04-25T22:41:31.652Z,88.67
2023-04-25T22:44:34.534Z,88.93
2023-04-25T22:47:38.380Z,88.81
2023-04-25T22:50:43.428Z,88.80
2023-04-25T22:53:46.226Z,88.83
2023-04-25T22:56:48.953Z,88.70
2023-04-25T22:59:56.146Z,88.60
2023-04-25T23:02:59.247Z,88.09
2023-04-25T23:06:03.814Z,87.80
2023-04-25T23:09:08.544Z,88.24
2023-04-25T23:12:11.370Z,87.14
2023-04-25T23:15:14.102Z,87.34
2023-04-25T23:18:17.226Z,87.13
2023-04-25T23:21:21.662Z,87.07
2023-04-25T23:24:24.965Z,87.17
2023-04-25T23:27:27.900Z,87.16
2023-04-25T23:30:30.675Z,87.26
2023-04-25T23:33:33.456Z,86.94
2023-04-25T23:36:37.612Z,87.16
2023-04-25T23:39:40.381Z,87.20
2023-04-25T23:42:43.227Z,86.18
2023-04-25T23:45:46.654Z,86.09
2023-04-25T23:48:49.470Z,86.27
2023-04-25T23:51:53.872Z,85.85
2023-04-25T23:54:56.911Z,85.60
2023-04-25T23:57:59.763Z,85.28
